Hordafor III — LLVC — position and weather

sailwx.info

Track history (hours):
 
Tides and Currents Weather Stations Pressure Air Temp Water Temp Dewpoint Dewpoint Depression Visibility Wind Speed Wind Dir Waves Ship Positions

Hordafor III

Last reported at 2014-Sep-04 15:20 UTC. Time now 2014-Sep-16 04:58 UTC.
Position N 61°52' E 005°16'.
Warning: this ship's position is 11 days out of date.

Length 50 m; draft 5.2 m.

Type: Ship. MMSI: 258044000.

Date/timePositionNaut miles runAvg speedWind from/ knotsBaromVisibWave heightAir tempDewpointWater temp
2014-Sep-04 15:20N 61°52' E 005°16'238 6.8
2014-Sep-03 04:34N 64°49' E 011°09'1010.1
2014-Sep-03 03:34N 64°56' E 011°26'1110.6
2014-Sep-03 02:33N 65°03' E 011°44'7410.1
2014-Sep-02 19:15N 66°14' E 012°35'7 9.4
2014-Sep-02 18:31N 66°19' E 012°23'3 3.1
2014-Sep-02 17:34N 66°22' E 012°23'0 0.0
2014-Sep-02 16:34N 66°22' E 012°23'0 0.0
2014-Sep-02 15:33N 66°22' E 012°23'0 0.0
2014-Sep-02 14:17N 66°22' E 012°23'0 0.0
2014-Sep-02 13:34N 66°22' E 012°23'2 1.5
2014-Sep-02 12:34N 66°22' E 012°26'10 9.7
2014-Sep-02 11:33N 66°27' E 012°48'49 9.6
2014-Sep-02 06:29N 67°07' E 013°60'1010.5
2014-Sep-02 05:34N 67°15' E 014°11'1110.7
2014-Sep-02 04:34N 67°24' E 014°26'1110.6
2014-Sep-02 03:30N 67°35' E 014°20'6 0.6
2014-Sep-01 17:04N 67°30' E 014°29'611.0
2014-Sep-01 16:33N 67°24' E 014°26'1111.1
2014-Sep-01 15:34N 67°15' E 014°11'3811.1
2014-Sep-01 12:10N 66°45' E 013°12'911.9
2014-Sep-01 11:23N 66°36' E 013°04'1110.6
2014-Sep-01 10:20N 66°25' E 012°59'7710.9
2014-Sep-01 03:15N 65°13' E 011°54'811.3
2014-Sep-01 02:31N 65°05' E 011°47'1111.1
2014-Sep-01 01:34N 64°57' E 011°30'1110.6
2014-Sep-01 00:34N 64°50' E 011°11'  
Track history (hours):
 
Tides and Currents Weather Stations Pressure Air Temp Water Temp Dewpoint Dewpoint Depression Visibility Wind Speed Wind Dir Waves Ship Positions

Hordafor III

Last reported at 2014-Sep-04 15:20 UTC. Time now 2014-Sep-16 04:58 UTC.
Position N 61°52' E 005°16'.
Warning: this ship's position is 11 days out of date.

Length 50 m; draft 5.2 m.

Type: Ship. MMSI: 258044000.

Date/timePositionNaut miles runAvg speedWind from/ knotsBaromVisibWave heightAir tempDewpointWater temp
2014-Sep-04 15:20N 61°52' E 005°16'238 6.8
2014-Sep-03 04:34N 64°49' E 011°09'1010.1
2014-Sep-03 03:34N 64°56' E 011°26'1110.6
2014-Sep-03 02:33N 65°03' E 011°44'7410.1
2014-Sep-02 19:15N 66°14' E 012°35'7 9.4
2014-Sep-02 18:31N 66°19' E 012°23'3 3.1
2014-Sep-02 17:34N 66°22' E 012°23'0 0.0
2014-Sep-02 16:34N 66°22' E 012°23'0 0.0
2014-Sep-02 15:33N 66°22' E 012°23'0 0.0
2014-Sep-02 14:17N 66°22' E 012°23'0 0.0
2014-Sep-02 13:34N 66°22' E 012°23'2 1.5
2014-Sep-02 12:34N 66°22' E 012°26'10 9.7
2014-Sep-02 11:33N 66°27' E 012°48'49 9.6
2014-Sep-02 06:29N 67°07' E 013°60'1010.5
2014-Sep-02 05:34N 67°15' E 014°11'1110.7
2014-Sep-02 04:34N 67°24' E 014°26'1110.6
2014-Sep-02 03:30N 67°35' E 014°20'6 0.6
2014-Sep-01 17:04N 67°30' E 014°29'611.0
2014-Sep-01 16:33N 67°24' E 014°26'1111.1
2014-Sep-01 15:34N 67°15' E 014°11'3811.1
2014-Sep-01 12:10N 66°45' E 013°12'911.9
2014-Sep-01 11:23N 66°36' E 013°04'1110.6
2014-Sep-01 10:20N 66°25' E 012°59'7710.9
2014-Sep-01 03:15N 65°13' E 011°54'811.3
2014-Sep-01 02:31N 65°05' E 011°47'1111.1
2014-Sep-01 01:34N 64°57' E 011°30'1110.6
2014-Sep-01 00:34N 64°50' E 011°11'  

Dump ship's entire track history